createdAt,value
2022-09-06T04:51:52.304Z,1.9
2022-09-06T04:54:52.533Z,1.6
2022-09-06T04:57:52.749Z,1.5
2022-09-06T05:00:53.113Z,1.6
2022-09-06T05:03:56.592Z,1.8
2022-09-06T05:06:53.425Z,2
2022-09-06T05:09:53.643Z,2.2
2022-09-06T05:12:53.865Z,1.7
2022-09-06T05:15:54.084Z,2
2022-09-06T05:18:54.300Z,2.3
2022-09-06T05:21:54.526Z,2.6
2022-09-06T05:24:54.749Z,2.9
2022-09-06T05:27:55.015Z,3.2
2022-09-06T05:30:50.190Z,3.5
2022-09-06T05:33:50.422Z,3.9
2022-09-06T05:36:55.632Z,4.5
2022-09-06T05:39:50.976Z,4.9
2022-09-06T05:42:51.096Z,5.3
2022-09-06T05:45:51.418Z,5.8
2022-09-06T05:48:51.513Z,6.4
2022-09-06T05:51:51.755Z,7
2022-09-06T05:54:51.962Z,7.5
2022-09-06T05:57:52.184Z,8
2022-09-06T06:00:52.448Z,8.5
2022-09-06T06:03:52.642Z,9.1
2022-09-06T06:06:52.841Z,9.7
2022-09-06T06:09:53.063Z,10.4
2022-09-06T06:12:53.281Z,11
2022-09-06T06:15:53.521Z,11.6
2022-09-06T06:18:53.750Z,12.1
2022-09-06T06:21:53.978Z,12.5
2022-09-06T06:24:54.180Z,12.8
2022-09-06T06:27:54.408Z,13.1
2022-09-06T06:30:54.674Z,13.3
2022-09-06T06:33:54.838Z,13.3
2022-09-06T06:36:55.070Z,13.3
2022-09-06T06:39:55.463Z,13.4
2022-09-06T06:42:55.521Z,13.5
2022-09-06T06:45:50.802Z,13.7
2022-09-06T06:48:55.975Z,14
2022-09-06T06:51:51.197Z,14.4
2022-09-06T06:54:51.453Z,14.9
2022-09-06T06:57:51.686Z,15.4
2022-09-06T07:00:57.099Z,16
2022-09-06T07:03:52.089Z,16.5
2022-09-06T07:12:52.768Z,18.1
2022-09-06T07:15:52.971Z,18.7
2022-09-06T07:18:53.311Z,19.3
2022-09-06T07:21:53.395Z,19.7
2022-09-06T07:24:53.647Z,19.9
2022-09-06T07:27:53.866Z,20.1
2022-09-06T07:30:54.086Z,20.2
2022-09-06T07:33:55.764Z,20.3
2022-09-06T07:36:54.551Z,20.5
2022-09-06T07:39:54.848Z,20.6
2022-09-06T07:42:55.075Z,20.6
2022-09-06T07:45:50.245Z,20.8
2022-09-06T07:48:50.441Z,21.3
2022-09-06T07:51:50.741Z,21.7
2022-09-06T07:54:55.885Z,22.1
2022-09-06T07:57:51.117Z,22.7
2022-09-06T08:00:51.440Z,23.3
2022-09-06T08:03:51.608Z,23.8
2022-09-06T08:09:51.994Z,24.9
2022-09-06T08:12:52.193Z,25.5
2022-09-06T08:15:57.532Z,26.1
2022-09-06T08:18:52.651Z,26.9
2022-09-06T08:21:52.925Z,27.5
2022-09-06T08:24:53.088Z,28.1
2022-09-06T08:27:53.362Z,28.9
2022-09-06T08:30:53.540Z,29.6
2022-09-06T08:33:53.793Z,30.4
2022-09-06T08:36:53.966Z,31.1
2022-09-06T08:39:54.335Z,31.9
2022-09-06T08:42:54.525Z,32.7
2022-09-06T08:45:55.837Z,33.2
2022-09-06T08:48:54.894Z,33.5
2022-09-06T08:51:55.135Z,33.7
2022-09-06T08:54:55.310Z,33.8
2022-09-06T08:57:55.520Z,33.8
2022-09-06T09:00:50.830Z,33.5
2022-09-06T09:03:50.995Z,32.6
2022-09-06T09:06:51.247Z,31.3
2022-09-06T09:09:51.409Z,30.1
2022-09-06T09:12:51.661Z,28.8
2022-09-06T09:15:51.972Z,27.6
2022-09-06T09:18:52.062Z,26.2
2022-09-06T09:21:52.291Z,24.9
2022-09-06T09:24:52.499Z,23.8
2022-09-06T09:27:52.723Z,23
2022-09-06T09:30:52.967Z,22.3
2022-09-06T09:33:53.220Z,21.7
2022-09-06T09:39:53.665Z,20.6
2022-09-06T09:42:53.892Z,20.1
2022-09-06T09:45:54.160Z,19.6
2022-09-06T09:48:59.304Z,19.3
2022-09-06T09:51:54.561Z,19.1
2022-09-06T09:54:54.788Z,19
2022-09-06T09:57:54.968Z,18.9
2022-09-06T10:00:55.248Z,18.7
2022-09-06T10:07:10.381Z,18.2
2022-09-06T10:09:50.975Z,18.1
2022-09-06T10:12:51.058Z,17.9
2022-09-06T10:15:51.356Z,17.8
2022-09-06T10:18:51.565Z,17.7
2022-09-06T10:21:51.768Z,17.7
2022-09-06T10:24:51.981Z,17.8
2022-09-06T10:28:10.351Z,18
2022-09-06T10:30:52.425Z,18.1
2022-09-06T10:33:52.610Z,18.3
2022-09-06T10:36:52.831Z,18.5
2022-09-06T10:39:58.113Z,18.6
2022-09-06T10:42:53.322Z,18.8
2022-09-06T10:45:53.495Z,19
2022-09-06T10:48:53.712Z,19.2
2022-09-06T10:51:53.998Z,19.4
2022-09-06T10:54:54.154Z,19.6
2022-09-06T10:58:17.682Z,19.7
2022-09-06T11:00:54.614Z,19.8
2022-09-06T11:03:58.310Z,19.9
2022-09-06T11:06:55.115Z,20.1
2022-09-06T11:09:55.311Z,20.1
2022-09-06T11:12:55.528Z,20.1
2022-09-06T11:15:50.812Z,20
2022-09-06T11:18:50.968Z,19.9
2022-09-06T11:21:51.193Z,19.8
2022-09-06T11:24:51.392Z,19.8
2022-09-06T11:27:54.961Z,20
2022-09-06T11:30:51.854Z,20.2
2022-09-06T11:33:52.076Z,20.6
2022-09-06T11:36:52.295Z,21.1
2022-09-06T11:42:52.714Z,21.9
2022-09-06T11:45:52.964Z,22.3
2022-09-06T11:48:53.200Z,22.5
2022-09-06T11:51:53.381Z,22.5
2022-09-06T11:54:53.721Z,22.4
2022-09-06T11:57:53.826Z,22.2
2022-09-06T12:00:54.037Z,22
2022-09-06T12:04:07.862Z,22
2022-09-06T12:06:54.500Z,22.1
2022-09-06T12:09:54.743Z,22.3
2022-09-06T12:12:54.951Z,22.6
2022-09-06T12:15:50.296Z,22.9
2022-09-06T12:18:55.476Z,23
2022-09-06T12:21:50.645Z,23
2022-09-06T12:24:50.858Z,22.9
2022-09-06T12:27:51.088Z,22.6
2022-09-06T12:30:51.288Z,22.1
2022-09-06T12:33:51.554Z,21.5
2022-09-06T12:36:51.710Z,20.9
2022-09-06T12:39:51.979Z,20.3
2022-09-06T12:42:52.207Z,20.1
2022-09-06T12:45:52.427Z,19.9
2022-09-06T12:48:52.608Z,19.6
2022-09-06T12:51:52.875Z,19.4
2022-09-06T12:54:53.074Z,19.3
2022-09-06T12:57:53.279Z,19
2022-09-06T13:00:53.520Z,18.9
2022-09-06T13:03:53.796Z,18.8
2022-09-06T13:06:53.966Z,18.5
2022-09-06T13:09:54.241Z,18.2
2022-09-06T13:12:54.406Z,17.9
2022-09-06T13:15:54.701Z,17.4
2022-09-06T13:18:54.881Z,16.8
2022-09-06T13:21:55.046Z,16.1
2022-09-06T13:24:55.272Z,15.3
2022-09-06T13:27:50.539Z,14.3
2022-09-06T13:30:50.747Z,13.2
2022-09-06T13:33:50.949Z,12.2
2022-09-06T13:36:51.193Z,11.4
2022-09-06T13:39:51.488Z,10.6
2022-09-06T13:42:51.644Z,10.1
2022-09-06T13:45:51.930Z,9.7
2022-09-06T13:48:52.056Z,9.5
2022-09-06T13:51:52.328Z,9.4
2022-09-06T13:54:52.545Z,9.4
2022-09-06T13:57:52.769Z,9.4
2022-09-06T14:00:57.992Z,9.3
2022-09-06T14:03:53.157Z,9.1
2022-09-06T14:06:53.427Z,8.6
2022-09-06T14:09:53.606Z,8.1
2022-09-06T14:12:53.806Z,7.5
2022-09-06T14:15:54.332Z,6.9
2022-09-06T14:18:54.249Z,6.3
2022-09-06T14:21:54.501Z,5.7
2022-09-06T14:24:54.735Z,5.4
2022-09-06T14:27:54.973Z,5.4
2022-09-06T14:30:55.284Z,5.6
2022-09-06T14:33:55.400Z,6
2022-09-06T14:36:55.552Z,6.6
2022-09-06T14:39:50.943Z,7.2
2022-09-06T14:42:51.008Z,7.8
2022-09-06T14:45:51.260Z,8.3
2022-09-06T14:48:51.465Z,8.8
2022-09-06T14:51:51.652Z,9.2
2022-09-06T14:54:51.899Z,9.5
2022-09-06T14:57:52.145Z,9.7
2022-09-06T15:00:52.288Z,9.8
2022-09-06T15:03:52.513Z,9.8
2022-09-06T15:06:52.709Z,9.9
2022-09-06T15:09:52.986Z,10.2
2022-09-06T15:12:53.181Z,10.6
2022-09-06T15:15:53.469Z,10.9
2022-09-06T15:18:53.615Z,11
2022-09-06T15:21:53.876Z,11.1
2022-09-06T15:24:54.068Z,11
2022-09-06T15:27:54.344Z,11.3
2022-09-06T15:30:59.606Z,11.5
2022-09-06T15:33:54.750Z,11.5
2022-09-06T15:36:54.970Z,11.3
2022-09-06T15:39:55.319Z,10.8
2022-09-06T15:42:55.412Z,10.6
2022-09-06T15:45:55.695Z,10.4
2022-09-06T15:48:50.856Z,10.4
2022-09-06T15:51:51.079Z,10.1
2022-09-06T15:54:51.314Z,9.7
2022-09-06T15:57:51.499Z,9.5
2022-09-06T16:00:56.735Z,9.5
2022-09-06T16:03:51.989Z,9.6
2022-09-06T16:06:52.206Z,10.6
2022-09-06T16:09:52.405Z,11.6
2022-09-06T16:12:52.632Z,12.4
2022-09-06T16:15:52.852Z,13.2
2022-09-06T16:18:53.081Z,14.1
2022-09-06T16:21:53.308Z,14.7
2022-09-06T16:24:53.521Z,15.3
2022-09-06T16:27:53.745Z,42.4
2022-09-06T16:30:54.076Z,42.3
2022-09-06T16:33:54.179Z,42.5
2022-09-06T16:36:54.417Z,42.6
2022-09-06T16:39:54.714Z,42.5
2022-09-06T16:42:54.862Z,42.1
2022-09-06T16:45:55.224Z,41.7
2022-09-06T16:48:55.316Z,41
2022-09-06T16:51:50.536Z,14
2022-09-06T16:54:50.764Z,13
2022-09-06T16:57:55.972Z,11.8
2022-09-06T17:00:51.333Z,10.5
2022-09-06T17:03:51.593Z,9.5
2022-09-06T17:06:51.652Z,8.8
2022-09-06T17:09:52.114Z,8.1
2022-09-06T17:12:52.337Z,7.5
2022-09-06T17:15:52.391Z,6.9
2022-09-06T17:18:52.824Z,6.4
2022-09-06T17:21:52.948Z,5.9
2022-09-06T17:24:53.408Z,5.6
2022-09-06T17:27:53.208Z,5.3
2022-09-06T17:30:53.860Z,4.9
2022-09-06T17:33:53.865Z,32.8
2022-09-06T17:36:53.901Z,60
2022-09-06T17:39:54.191Z,87.7
2022-09-06T17:42:54.566Z,115.3
2022-09-06T17:45:54.621Z,114.8
2022-09-06T17:48:54.784Z,114.4
2022-09-06T17:51:55.006Z,114.4
2022-09-06T17:54:55.542Z,114.4
2022-09-06T17:57:50.693Z,114.4
2022-09-06T18:00:55.728Z,114.4
2022-09-06T18:03:55.938Z,114.4
2022-09-06T18:06:51.410Z,114.8
2022-09-06T18:09:51.350Z,115.3
2022-09-06T18:12:51.875Z,87.5
2022-09-06T18:15:51.785Z,60.5
2022-09-06T18:18:52.013Z,33
2022-09-06T18:21:52.247Z,5.6
2022-09-06T18:24:57.537Z,6.5
2022-09-06T18:27:52.667Z,7.3
2022-09-06T18:30:52.923Z,7.3
2022-09-06T18:33:53.101Z,7.3
2022-09-06T18:36:53.352Z,7.3
2022-09-06T18:39:53.615Z,7.3
2022-09-06T18:42:53.791Z,7.4
2022-09-06T18:45:54.138Z,7.4
2022-09-06T18:48:54.256Z,7.4
2022-09-06T18:51:54.449Z,7.4
2022-09-06T18:54:54.665Z,7.4
2022-09-06T18:57:54.877Z,7.4
2022-09-06T19:00:55.176Z,7.4
2022-09-06T19:03:55.334Z,7.4
2022-09-06T19:06:50.550Z,7.4
2022-09-06T19:09:50.770Z,7.4
2022-09-06T19:12:53.243Z,7.4
2022-09-06T19:15:51.403Z,7.4
2022-09-06T19:18:51.473Z,7.4
2022-09-06T19:21:51.683Z,7.4
2022-09-06T19:24:51.896Z,7.4
2022-09-06T19:27:52.115Z,7.4
2022-09-06T19:30:52.331Z,7.4
2022-09-06T19:33:52.560Z,7.4
2022-09-06T19:36:52.778Z,7.4
2022-09-06T19:39:53.106Z,7.4
2022-09-06T19:42:53.237Z,7.4
